Time;durP1;ratioP1;P1;durP2;ratioP2;P2;SDS_P1;SDS_P2;PMS_P1;PMS_P2;Temp;Humidity;BMP_temperature;BMP_pressure;BME280_temperature;BME280_humidity;BME280_pressure;Samples;Min_cycle;Max_cycle;Signal;HPM_P1;HPM_P2
2022/05/03 00:02:24;;;;;;;13.13;12.13;;;14.50;88.40;;;;;;5011868;28;20456;-69
2022/05/03 00:05:15;;;;;;;12.50;10.57;;;14.50;87.90;;;;;;5011559;28;20405;-69
2022/05/03 00:08:02;;;;;;;12.23;11.03;;;14.40;87.80;;;;;;5010547;28;20405;-69
2022/05/03 00:10:39;;;;;;;12.10;11.00;;;14.40;88.30;;;;;;5010750;28;20425;-74
2022/05/03 00:13:11;;;;;;;11.83;10.73;;;14.30;88.50;;;;;;5012622;28;20826;-68
2022/05/03 00:15:40;;;;;;;12.17;11.03;;;14.30;89.00;;;;;;5011704;28;20406;-69
2022/05/03 00:18:07;;;;;;;11.53;10.53;;;14.30;89.50;;;;;;5012458;28;20458;-68
2022/05/03 00:20:33;;;;;;;13.70;11.90;;;14.20;90.40;;;;;;5008363;28;20441;-69
2022/05/03 00:23:00;;;;;;;11.80;10.80;;;14.20;90.50;;;;;;5012199;28;20413;-68
2022/05/03 00:25:29;;;;;;;12.03;10.93;;;14.20;90.70;;;;;;5011752;28;20509;-68
2022/05/03 00:27:55;;;;;;;12.47;11.47;;;14.10;90.70;;;;;;5011977;28;20456;-68
2022/05/03 00:30:21;;;;;;;13.77;12.50;;;14.10;90.90;;;;;;5012366;28;20883;-69
2022/05/03 00:32:47;;;;;;;11.87;10.67;;;14.10;91.00;;;;;;5011217;28;20505;-68
2022/05/03 00:35:13;;;;;;;12.77;11.57;;;14.00;91.10;;;;;;5012420;28;20441;-68
2022/05/03 00:37:39;;;;;;;15.30;12.23;;;14.00;91.20;;;;;;5011138;28;20460;-68
2022/05/03 00:40:05;;;;;;;13.40;12.20;;;13.90;91.30;;;;;;5011618;28;20448;-69
2022/05/03 00:42:43;;;;;;;12.73;11.53;;;13.90;91.50;;;;;;5011595;28;20252;-75
2022/05/03 00:45:25;;;;;;;13.30;12.10;;;13.90;91.70;;;;;;5012155;28;20433;-68
2022/05/03 00:47:54;;;;;;;13.60;12.13;;;13.80;91.60;;;;;;5011446;28;20428;-68
2022/05/03 00:50:39;;;;;;;13.00;11.47;;;13.80;91.90;;;;;;5012028;28;20519;-68
2022/05/03 00:53:26;;;;;;;14.63;11.33;;;13.80;92.00;;;;;;5012369;28;20817;-68
2022/05/03 00:56:17;;;;;;;12.20;11.10;;;13.70;92.00;;;;;;5011056;28;20404;-68
2022/05/03 00:59:12;;;;;;;12.70;11.60;;;13.70;92.20;;;;;;5011089;28;20456;-68
2022/05/03 01:01:53;;;;;;;13.13;11.90;;;13.70;92.40;;;;;;5009465;28;20449;-69
2022/05/03 01:04:37;;;;;;;12.70;11.57;;;13.60;92.10;;;;;;5012018;28;20539;-68
2022/05/03 01:07:25;;;;;;;13.63;12.43;;;13.50;92.50;;;;;;5010578;28;20450;-68
2022/05/03 01:10:11;;;;;;;13.70;12.37;;;13.50;92.60;;;;;;5010316;28;20696;-72
2022/05/03 01:12:55;;;;;;;13.33;12.03;;;13.50;92.80;;;;;;4991092;28;20940;-68
2022/05/03 01:15:29;;;;;;;13.80;12.50;;;13.50;93.00;;;;;;4996097;28;20432;-68
2022/05/03 01:18:10;;;;;;;14.00;12.47;;;13.50;93.00;;;;;;5011060;28;20436;-68
2022/05/03 01:20:47;;;;;;;14.27;12.97;;;13.40;93.20;;;;;;5013509;28;20503;-69
2022/05/03 01:23:18;;;;;;;13.80;12.60;;;13.40;93.10;;;;;;5011699;28;20402;-68
2022/05/03 01:25:50;;;;;;;12.90;11.63;;;13.40;92.80;;;;;;5014739;28;20450;-68
2022/05/03 01:28:49;;;;;;;12.90;11.70;;;13.30;92.50;;;;;;5014767;28;20435;-68
2022/05/03 01:31:16;;;;;;;12.80;10.97;;;13.20;92.70;;;;;;5014201;28;20388;-68
2022/05/03 01:33:43;;;;;;;11.90;10.70;;;13.20;92.90;;;;;;5014303;28;20415;-68
2022/05/03 01:36:10;;;;;;;11.43;10.33;;;13.20;92.60;;;;;;5014205;28;20452;-68
2022/05/03 01:39:03;;;;;;;14.50;10.77;;;13.20;92.40;;;;;;5013838;28;20475;-75
2022/05/03 01:41:51;;;;;;;10.13;9.13;;;13.20;92.30;;;;;;5014760;28;20863;-68
2022/05/03 01:44:26;;;;;;;10.97;9.97;;;13.20;92.30;;;;;;5014997;28;20493;-68
2022/05/03 01:47:07;;;;;;;10.67;9.50;;;13.20;92.70;;;;;;5013750;28;21424;-68
2022/05/03 01:52:46;;;;;;;11.03;9.93;;;13.20;93.00;;;;;;5014013;28;20402;-69
2022/05/03 01:55:20;;;;;;;10.97;9.77;;;13.20;93.00;;;;;;5013903;28;20432;-68
2022/05/03 01:58:12;;;;;;;12.60;11.30;;;13.20;92.90;;;;;;5012089;28;20438;-68
2022/05/03 02:00:39;;;;;;;11.77;10.67;;;13.20;93.20;;;;;;5012029;28;20441;-69
2022/05/03 02:03:29;;;;;;;12.70;11.40;;;13.10;93.40;;;;;;5014638;28;20419;-68
2022/05/03 02:06:14;;;;;;;10.83;9.90;;;13.10;93.60;;;;;;5002762;28;20483;-68
2022/05/03 02:09:02;;;;;;;11.87;10.70;;;13.10;94.00;;;;;;5013755;28;20492;-68
2022/05/03 02:11:42;;;;;;;13.93;12.50;;;13.00;94.10;;;;;;4996052;28;20444;-68
2022/05/03 02:17:07;;;;;;;12.50;11.20;;;12.90;93.80;;;;;;5013422;28;20691;-68
2022/05/03 02:20:08;;;;;;;11.37;10.27;;;12.90;94.50;;;;;;5012346;28;20562;-68
2022/05/03 02:22:46;;;;;;;12.33;11.23;;;13.00;94.70;;;;;;5012870;28;20496;-68
2022/05/03 02:25:27;;;;;;;12.90;11.20;;;12.90;94.70;;;;;;5014295;28;20507;-68
2022/05/03 02:28:04;;;;;;;10.83;9.87;;;13.00;94.50;;;;;;5012118;28;20427;-68
2022/05/03 02:30:35;;;;;;;12.50;11.10;;;13.00;94.40;;;;;;5012160;28;20458;-68
2022/05/03 02:33:17;;;;;;;12.10;10.90;;;13.00;94.50;;;;;;5012402;28;20406;-68
2022/05/03 02:35:51;;;;;;;12.63;11.43;;;12.90;94.60;;;;;;5013178;28;20403;-68
2022/05/03 02:38:31;;;;;;;12.23;11.03;;;12.90;94.70;;;;;;5014223;28;20482;-68
2022/05/03 02:41:00;;;;;;;12.73;11.43;;;12.80;94.80;;;;;;5013115;28;20394;-68
2022/05/03 02:43:29;;;;;;;13.33;12.13;;;12.80;95.10;;;;;;5013547;28;20497;-68
2022/05/03 02:46:23;;;;;;;12.43;11.33;;;12.70;95.10;;;;;;5012760;28;20447;-68
2022/05/03 02:49:19;;;;;;;11.67;10.57;;;12.70;95.40;;;;;;5005912;28;20977;-68
2022/05/03 02:52:11;;;;;;;13.97;11.70;;;12.70;95.50;;;;;;5011555;28;20445;-69
2022/05/03 02:54:50;;;;;;;12.57;11.17;;;12.70;95.20;;;;;;4993406;28;21003;-75
2022/05/03 02:57:44;;;;;;;13.33;12.03;;;12.70;95.40;;;;;;5012128;28;20520;-68
2022/05/03 03:03:16;;;;;;;14.00;12.37;;;12.60;95.60;;;;;;5010650;28;20433;-68
2022/05/03 03:05:45;;;;;;;13.30;12.00;;;12.50;95.70;;;;;;5012960;28;20563;-68
2022/05/03 03:08:14;;;;;;;13.73;12.20;;;12.50;95.70;;;;;;5013472;28;20466;-68
2022/05/03 03:10:39;;;;;;;12.60;11.47;;;12.50;95.70;;;;;;5012855;28;20489;-75
2022/05/03 03:13:33;;;;;;;12.87;11.63;;;12.50;95.80;;;;;;5012278;28;20572;-68
2022/05/03 03:15:59;;;;;;;13.23;11.83;;;12.50;95.70;;;;;;5012376;28;20186;-69
2022/05/03 03:18:26;;;;;;;13.40;12.10;;;12.50;95.50;;;;;;5012612;28;20544;-68
2022/05/03 03:20:59;;;;;;;14.23;11.27;;;12.50;95.70;;;;;;5012387;28;20770;-68
2022/05/03 03:23:28;;;;;;;13.57;11.50;;;12.50;95.70;;;;;;5013193;28;20422;-68
2022/05/03 03:25:54;;;;;;;12.43;11.20;;;12.50;95.80;;;;;;5012319;28;20444;-68
2022/05/03 03:28:22;;;;;;;13.17;11.77;;;12.50;95.60;;;;;;5011726;28;20405;-68
2022/05/03 03:30:52;;;;;;;12.60;11.40;;;12.50;95.70;;;;;;5012404;28;20560;-69
2022/05/03 03:33:21;;;;;;;12.70;11.60;;;12.50;95.70;;;;;;5010497;28;20497;-68
2022/05/03 03:35:48;;;;;;;13.73;12.43;;;12.40;95.90;;;;;;5027173;28;20886;-69
2022/05/03 03:38:14;;;;;;;13.00;11.80;;;12.40;95.80;;;;;;5012560;28;20932;-68
2022/05/03 03:40:45;;;;;;;13.20;11.97;;;12.30;96.00;;;;;;5011713;28;20814;-75
2022/05/03 03:43:12;;;;;;;12.53;11.20;;;12.30;96.00;;;;;;5012853;28;20504;-68
2022/05/03 03:45:38;;;;;;;11.50;10.50;;;12.30;96.10;;;;;;5012026;28;20913;-68
2022/05/03 03:48:05;;;;;;;12.73;10.67;;;12.20;96.00;;;;;;5011768;28;20442;-68
2022/05/03 03:50:31;;;;;;;12.77;11.47;;;12.20;95.70;;;;;;5012286;28;20456;-68
2022/05/03 03:52:58;;;;;;;12.70;11.50;;;12.10;95.80;;;;;;5011516;28;20434;-68
2022/05/03 03:55:26;;;;;;;12.73;11.43;;;12.10;96.00;;;;;;4995054;28;20545;-68
2022/05/03 03:57:52;;;;;;;12.47;11.00;;;12.10;95.80;;;;;;5009958;28;20428;-68
2022/05/03 04:00:18;;;;;;;13.17;11.87;;;12.00;95.80;;;;;;5012811;28;20417;-68
2022/05/03 04:02:46;;;;;;;14.47;12.70;;;11.90;96.10;;;;;;5011881;28;20770;-74
2022/05/03 04:05:22;;;;;;;12.93;11.73;;;11.90;96.70;;;;;;5011091;28;20627;-68
2022/05/03 04:07:51;;;;;;;13.27;12.03;;;11.90;96.90;;;;;;5010763;28;20804;-69
2022/05/03 04:10:18;;;;;;;12.73;11.43;;;11.90;97.10;;;;;;5011363;28;20424;-68
2022/05/03 04:12:44;;;;;;;12.80;11.40;;;11.90;97.30;;;;;;5011720;28;20431;-75
2022/05/03 04:15:10;;;;;;;13.37;11.97;;;11.90;97.30;;;;;;5012236;28;20425;-68
2022/05/03 04:17:35;;;;;;;14.57;13.07;;;11.80;97.60;;;;;;5012452;28;20909;-68
2022/05/03 04:20:02;;;;;;;14.27;12.43;;;11.90;97.70;;;;;;5011305;28;20307;-68
2022/05/03 04:22:29;;;;;;;14.73;13.33;;;11.90;97.70;;;;;;5012413;28;20408;-68
2022/05/03 04:24:55;;;;;;;14.53;13.13;;;11.80;97.70;;;;;;5011594;28;20420;-69
2022/05/03 04:27:21;;;;;;;14.90;13.40;;;11.80;97.70;;;;;;5010778;28;20430;-68
2022/05/03 04:29:51;;;;;;;14.50;13.10;;;11.80;97.90;;;;;;5011547;28;20425;-68
2022/05/03 04:32:17;;;;;;;16.80;12.93;;;11.80;98.10;;;;;;5011528;28;20425;-68
2022/05/03 04:34:43;;;;;;;15.10;13.60;;;11.80;98.10;;;;;;5011657;28;20940;-75
2022/05/03 04:37:09;;;;;;;17.60;13.40;;;11.80;98.30;;;;;;5010897;28;20196;-68
2022/05/03 04:39:35;;;;;;;15.07;13.23;;;11.70;98.20;;;;;;5012448;28;20472;-68
2022/05/03 04:42:00;;;;;;;14.37;12.57;;;11.80;98.40;;;;;;5010328;28;20422;-68
2022/05/03 04:44:27;;;;;;;13.67;12.30;;;11.80;98.00;;;;;;5012505;28;20639;-67
2022/05/03 04:46:53;;;;;;;16.20;13.27;;;11.80;97.90;;;;;;5009931;28;20199;-67
2022/05/03 04:49:18;;;;;;;13.50;12.20;;;11.80;98.10;;;;;;5012026;28;20469;-68
2022/05/03 04:51:45;;;;;;;14.77;13.27;;;11.80;97.90;;;;;;5012071;28;20476;-73
2022/05/03 04:54:10;;;;;;;13.43;11.63;;;11.80;97.70;;;;;;5013018;28;20209;-67
2022/05/03 04:56:36;;;;;;;13.67;12.17;;;11.80;97.60;;;;;;5015771;28;20445;-68
2022/05/03 04:59:03;;;;;;;15.30;12.30;;;11.80;97.10;;;;;;5015021;28;20301;-67
2022/05/03 05:01:29;;;;;;;11.90;10.73;;;11.90;97.20;;;;;;5016107;28;20180;-68
2022/05/03 05:03:55;;;;;;;11.73;10.60;;;11.80;97.00;;;;;;5015402;28;20512;-67
2022/05/03 05:06:22;;;;;;;10.47;9.37;;;11.80;96.60;;;;;;5015600;28;20471;-67
2022/05/03 05:08:47;;;;;;;10.93;9.93;;;11.90;95.90;;;;;;4996210;28;20440;-74
2022/05/03 05:11:13;;;;;;;12.30;9.83;;;11.90;96.50;;;;;;5013576;28;20444;-71
2022/05/03 05:13:39;;;;;;;12.40;10.73;;;12.00;96.80;;;;;;5013628;28;20197;-71
2022/05/03 05:16:07;;;;;;;12.37;11.17;;;12.00;96.10;;;;;;5015233;28;20256;-72
2022/05/03 05:18:33;;;;;;;12.83;11.43;;;11.90;95.70;;;;;;5014017;28;20473;-71
2022/05/03 05:20:59;;;;;;;11.90;10.90;;;11.90;96.10;;;;;;5014886;28;20427;-71
2022/05/03 05:23:25;;;;;;;13.00;11.67;;;11.90;96.00;;;;;;5015673;28;20489;-71
2022/05/03 05:25:52;;;;;;;13.00;11.70;;;11.90;96.00;;;;;;5014936;28;20418;-71
2022/05/03 05:28:19;;;;;;;15.20;13.60;;;11.90;96.30;;;;;;5009793;28;20442;-70
2022/05/03 05:30:45;;;;;;;20.93;15.63;;;12.00;96.80;;;;;;5012454;28;20447;-71
2022/05/03 05:33:11;;;;;;;15.37;13.73;;;12.00;96.70;;;;;;5014114;28;20473;-71
2022/05/03 05:35:38;;;;;;;15.97;12.50;;;12.00;96.50;;;;;;5013413;28;20480;-71
2022/05/03 05:38:04;;;;;;;13.70;12.30;;;12.00;95.90;;;;;;5013185;28;20445;-71
2022/05/03 05:40:30;;;;;;;14.10;12.60;;;12.10;96.70;;;;;;5015138;28;20818;-71
2022/05/03 05:42:55;;;;;;;12.90;11.40;;;12.10;97.20;;;;;;5012117;28;20232;-74
2022/05/03 05:45:21;;;;;;;11.77;10.10;;;12.10;96.30;;;;;;5014349;28;20649;-72
2022/05/03 05:47:47;;;;;;;13.83;11.67;;;12.10;96.10;;;;;;5009612;28;20191;-73
2022/05/03 05:50:13;;;;;;;11.80;10.60;;;12.20;95.90;;;;;;5012939;28;20490;-75
2022/05/03 05:55:23;;;;;;;11.87;10.67;;;12.50;99.90;;;;;;5014074;28;20775;-76
2022/05/03 05:57:50;;;;;;;14.40;11.83;;;13.00;99.90;;;;;;5013643;28;20435;-76
2022/05/03 06:00:16;;;;;;;11.70;10.60;;;13.40;99.90;;;;;;5012264;28;20474;-76
2022/05/03 06:02:42;;;;;;;13.97;9.90;;;13.70;99.90;;;;;;5014844;28;20435;-76
2022/05/03 06:05:08;;;;;;;12.93;9.97;;;13.90;95.70;;;;;;5013473;28;20439;-76
2022/05/03 06:07:33;;;;;;;12.70;11.50;;;14.20;95.50;;;;;;5013659;28;20424;-76
2022/05/03 06:09:59;;;;;;;12.60;11.27;;;14.40;93.90;;;;;;5013267;28;20631;-75
2022/05/03 06:12:25;;;;;;;11.30;10.30;;;14.60;92.80;;;;;;5013887;28;20191;-76
2022/05/03 06:14:52;;;;;;;11.67;10.70;;;14.80;93.40;;;;;;5014005;28;20737;-76
2022/05/03 06:17:17;;;;;;;11.33;10.17;;;14.90;94.00;;;;;;5011846;28;20222;-76
2022/05/03 06:19:44;;;;;;;11.30;9.50;;;15.00;92.90;;;;;;5013683;28;20478;-76
2022/05/03 06:22:10;;;;;;;11.63;10.30;;;15.10;90.40;;;;;;5013517;28;20186;-76
2022/05/03 06:24:35;;;;;;;10.10;9.20;;;15.20;90.40;;;;;;5014288;28;20409;-76
2022/05/03 06:27:01;;;;;;;10.60;8.73;;;15.40;91.50;;;;;;5012584;28;20470;-76
2022/05/03 06:29:27;;;;;;;9.40;8.50;;;15.50;91.20;;;;;;5012350;28;20247;-77
2022/05/03 06:31:53;;;;;;;8.80;8.10;;;15.60;90.50;;;;;;5011543;28;20541;-76
2022/05/03 06:34:18;;;;;;;9.77;8.87;;;15.80;90.10;;;;;;5012925;28;20185;-76
2022/05/03 06:36:45;;;;;;;9.43;8.53;;;15.90;88.90;;;;;;5013463;28;20236;-76
2022/05/03 06:39:12;;;;;;;9.60;8.33;;;16.00;89.80;;;;;;5011751;28;20716;-76
2022/05/03 06:41:37;;;;;;;8.67;7.87;;;16.10;89.20;;;;;;5014015;28;20945;-75
2022/05/03 06:44:03;;;;;;;8.50;7.80;;;16.20;85.80;;;;;;5012422;28;20515;-75
2022/05/03 06:46:29;;;;;;;9.17;8.27;;;15.90;80.10;;;;;;5010880;28;20178;-76
2022/05/03 06:48:55;;;;;;;9.73;8.60;;;15.90;83.10;;;;;;5012358;28;20482;-76
2022/05/03 06:51:21;;;;;;;7.80;7.13;;;15.80;79.40;;;;;;5012760;28;20279;-77
2022/05/03 06:53:47;;;;;;;8.97;8.17;;;15.70;80.00;;;;;;5013865;28;20200;-76
2022/05/03 06:56:14;;;;;;;9.13;8.40;;;15.60;81.00;;;;;;5012696;28;20496;-76
2022/05/03 06:58:40;;;;;;;9.50;8.60;;;15.40;82.80;;;;;;5013148;28;20210;-76
2022/05/03 07:01:10;;;;;;;10.77;7.70;;;15.40;81.10;;;;;;5011004;28;20434;-76
2022/05/03 07:03:37;;;;;;;9.23;8.43;;;15.40;84.50;;;;;;5013614;28;20447;-76
2022/05/03 07:06:04;;;;;;;9.57;8.53;;;15.60;83.50;;;;;;5012356;28;20498;-76
2022/05/03 07:08:34;;;;;;;8.47;7.70;;;15.70;81.90;;;;;;5012794;28;20909;-76
2022/05/03 07:11:00;;;;;;;9.43;8.53;;;15.80;82.80;;;;;;5012346;28;20528;-76
2022/05/03 07:13:26;;;;;;;8.47;7.77;;;15.80;82.10;;;;;;5010668;28;20513;-76
2022/05/03 07:15:53;;;;;;;9.33;8.50;;;15.80;80.90;;;;;;5012906;28;20190;-77
2022/05/03 07:24:05;;;;;;;9.70;7.53;;;16.10;84.10;;;;;;5000414;28;20440;-76
2022/05/03 07:26:31;;;;;;;9.90;9.00;;;16.20;82.60;;;;;;5011503;28;20467;-76
2022/05/03 07:28:57;;;;;;;8.77;7.97;;;16.30;83.70;;;;;;5012073;28;20448;-76
2022/05/03 07:31:23;;;;;;;8.33;7.50;;;16.40;81.90;;;;;;5012677;28;20440;-76
2022/05/03 07:33:49;;;;;;;8.90;8.20;;;16.60;82.50;;;;;;5010492;28;20599;-76
2022/05/03 07:36:17;;;;;;;7.00;6.40;;;16.70;80.90;;;;;;5011634;28;20434;-70
2022/05/03 07:38:43;;;;;;;9.23;8.50;;;16.90;83.30;;;;;;5011957;28;20206;-71
2022/05/03 07:41:09;;;;;;;8.93;8.13;;;17.00;78.10;;;;;;5012627;28;20409;-70
2022/05/03 07:43:35;;;;;;;8.37;7.67;;;17.00;77.60;;;;;;5013038;28;20221;-70
2022/05/03 07:46:01;;;;;;;7.83;7.03;;;16.90;76.40;;;;;;5012477;28;20277;-71
2022/05/03 07:48:27;;;;;;;7.77;7.00;;;16.90;76.30;;;;;;5012962;28;20465;-70
2022/05/03 07:50:53;;;;;;;7.53;6.87;;;16.70;75.40;;;;;;5013086;28;20422;-70
2022/05/03 07:53:19;;;;;;;6.57;5.97;;;16.70;78.60;;;;;;5013206;28;20438;-70
2022/05/03 07:55:48;;;;;;;6.20;5.80;;;16.60;76.90;;;;;;5012949;28;20831;-71
2022/05/03 07:58:15;;;;;;;5.43;5.03;;;16.60;73.80;;;;;;5011992;28;20946;-72
2022/05/03 08:00:41;;;;;;;6.63;5.97;;;16.60;72.40;;;;;;5012884;28;20436;-71
2022/05/03 08:03:07;;;;;;;5.50;5.10;;;16.60;73.10;;;;;;5012680;28;20508;-71
2022/05/03 08:05:33;;;;;;;5.90;5.40;;;16.60;72.90;;;;;;5012936;28;20974;-72
2022/05/03 08:07:58;;;;;;;6.40;5.80;;;16.60;75.30;;;;;;5010885;28;20185;-72
2022/05/03 08:10:24;;;;;;;7.13;5.70;;;16.60;73.30;;;;;;5012302;28;20424;-72
2022/05/03 08:12:53;;;;;;;6.03;5.53;;;16.70;73.50;;;;;;5012405;28;20179;-72
2022/05/03 08:15:20;;;;;;;6.53;5.67;;;16.70;74.00;;;;;;5011819;28;20532;-72
2022/05/03 08:17:46;;;;;;;6.03;5.47;;;16.70;73.10;;;;;;5011596;28;20452;-72
2022/05/03 08:20:13;;;;;;;6.20;5.60;;;16.80;72.60;;;;;;5011743;28;20918;-72
2022/05/03 08:22:39;;;;;;;7.33;6.40;;;16.80;73.70;;;;;;5012003;28;20906;-73
2022/05/03 08:25:06;;;;;;;6.97;6.47;;;16.80;70.60;;;;;;5009936;28;20524;-73
2022/05/03 08:27:33;;;;;;;6.80;6.30;;;16.80;71.60;;;;;;5009987;28;20465;-71
2022/05/03 08:29:59;;;;;;;6.17;5.67;;;16.90;70.70;;;;;;5010455;28;20461;-77
2022/05/03 08:32:25;;;;;;;7.30;6.70;;;17.00;72.80;;;;;;5014595;28;20422;-71
2022/05/03 08:34:51;;;;;;;6.50;5.90;;;17.10;70.60;;;;;;4998536;28;20524;-70
2022/05/03 08:42:45;;;;;;;7.33;6.67;;;17.40;72.10;;;;;;5016830;28;20404;-70
2022/05/03 08:45:11;;;;;;;6.20;5.60;;;17.40;70.70;;;;;;5015857;28;20776;-69
2022/05/03 08:47:38;;;;;;;6.33;5.53;;;17.50;69.70;;;;;;5016974;28;20226;-69
2022/05/03 08:50:12;;;;;;;5.93;5.53;;;17.70;69.50;;;;;;5014062;28;20481;-69
2022/05/03 08:52:48;;;;;;;6.67;6.07;;;17.80;66.80;;;;;;5015583;28;20413;-69
2022/05/03 08:55:14;;;;;;;7.57;6.93;;;17.90;66.70;;;;;;5015191;28;20441;-69
2022/05/03 08:57:44;;;;;;;6.40;5.90;;;18.00;68.00;;;;;;5014997;28;21018;-69
2022/05/03 09:00:12;;;;;;;6.47;5.97;;;18.10;65.50;;;;;;5014382;28;20465;-69
2022/05/03 09:02:57;;;;;;;6.50;6.00;;;18.20;65.00;;;;;;5016240;28;20414;-69
2022/05/03 09:05:23;;;;;;;5.53;5.13;;;18.30;62.20;;;;;;5015831;28;20877;-69
2022/05/03 09:07:51;;;;;;;6.10;5.50;;;18.30;61.80;;;;;;5015780;28;20479;-69
2022/05/03 09:10:18;;;;;;;5.20;4.77;;;18.50;63.40;;;;;;5015363;28;20410;-69
2022/05/03 09:12:44;;;;;;;5.60;5.27;;;18.50;63.80;;;;;;5014728;28;20433;-69
2022/05/03 09:15:14;;;;;;;5.40;4.90;;;18.70;62.70;;;;;;5015277;28;20421;-69
2022/05/03 09:17:45;;;;;;;4.93;4.60;;;18.80;61.00;;;;;;5016280;28;20430;-69
2022/05/03 09:25:49;;;;;;;6.30;5.20;;;19.30;57.90;;;;;;5015996;28;20494;-69
2022/05/03 09:28:15;;;;;;;4.90;4.50;;;19.30;57.80;;;;;;5015351;28;20818;-69
2022/05/03 09:30:46;;;;;;;4.60;4.30;;;19.40;56.80;;;;;;5015620;28;20426;-69
2022/05/03 09:33:22;;;;;;;5.47;5.00;;;19.50;59.10;;;;;;5015264;28;20172;-69
2022/05/03 09:35:50;;;;;;;4.33;4.03;;;19.60;58.70;;;;;;5015721;28;20413;-69
2022/05/03 09:38:16;;;;;;;5.00;4.70;;;19.80;57.30;;;;;;5014813;28;20468;-69
2022/05/03 09:40:44;;;;;;;5.30;5.00;;;19.70;53.40;;;;;;5014956;28;20402;-69
2022/05/03 09:43:10;;;;;;;5.40;5.10;;;19.80;56.40;;;;;;5013493;28;20438;-69
2022/05/03 09:45:36;;;;;;;5.13;4.90;;;19.90;55.50;;;;;;5015554;28;20413;-69
2022/05/03 09:48:03;;;;;;;5.10;4.80;;;20.00;53.60;;;;;;5014371;28;20422;-69
2022/05/03 09:50:41;;;;;;;5.10;4.80;;;20.10;57.60;;;;;;5015423;28;20497;-69
2022/05/03 09:53:11;;;;;;;5.37;5.07;;;20.30;56.20;;;;;;5014322;28;20436;-69
2022/05/03 09:55:39;;;;;;;5.00;4.70;;;20.30;53.20;;;;;;5015278;28;20402;-69
2022/05/03 09:58:10;;;;;;;5.80;4.60;;;20.00;51.70;;;;;;5014443;28;20444;-70
2022/05/03 10:00:39;;;;;;;5.13;4.33;;;20.10;55.40;;;;;;5015107;28;20475;-69
2022/05/03 10:03:09;;;;;;;4.60;4.33;;;20.30;57.40;;;;;;5014415;28;20505;-70
2022/05/03 10:05:36;;;;;;;4.50;4.10;;;20.50;56.80;;;;;;5014954;28;20402;-69
2022/05/03 10:08:03;;;;;;;3.93;3.63;;;20.60;55.80;;;;;;5014299;28;20446;-73
2022/05/03 10:10:29;;;;;;;5.10;4.60;;;20.60;56.00;;;;;;5014868;28;20434;-69
2022/05/03 10:12:55;;;;;;;5.70;4.07;;;20.60;54.50;;;;;;5014519;28;20454;-69
2022/05/03 10:21:12;;;;;;;4.37;4.17;;;20.60;55.60;;;;;;5013749;28;20891;-69
2022/05/03 10:23:38;;;;;;;4.40;4.00;;;20.70;55.40;;;;;;5014751;28;20412;-69
2022/05/03 10:26:06;;;;;;;5.00;4.20;;;20.70;55.30;;;;;;5012814;28;20945;-70
2022/05/03 10:29:09;;;;;;;4.10;3.90;;;20.90;52.70;;;;;;5014520;28;20522;-69
2022/05/03 10:32:03;;;;;;;4.00;3.60;;;21.00;56.10;;;;;;5014419;28;20424;-69
2022/05/03 10:34:44;;;;;;;4.93;4.53;;;21.20;54.20;;;;;;5014229;28;20473;-69
2022/05/03 10:37:18;;;;;;;4.87;4.50;;;21.20;53.80;;;;;;5013785;28;20429;-71
2022/05/03 10:40:09;;;;;;;4.47;4.00;;;21.30;54.60;;;;;;5014221;28;20473;-70
2022/05/03 10:42:34;;;;;;;3.30;3.03;;;21.50;55.30;;;;;;5014833;28;20406;-69
2022/05/03 10:45:06;;;;;;;4.20;3.80;;;21.60;53.90;;;;;;5014117;28;20906;-69
2022/05/03 10:47:47;;;;;;;5.00;4.50;;;21.70;52.00;;;;;;5013995;28;20201;-69
2022/05/03 10:50:15;;;;;;;6.07;5.70;;;21.70;54.10;;;;;;5013593;28;20882;-69
2022/05/03 10:52:46;;;;;;;4.77;4.47;;;21.80;56.00;;;;;;5013234;28;20429;-69
2022/05/03 10:55:13;;;;;;;5.73;5.23;;;21.80;52.80;;;;;;5013257;28;20413;-69
2022/05/03 10:58:19;;;;;;;5.20;4.70;;;21.90;53.40;;;;;;5013801;28;20414;-69
2022/05/03 11:01:05;;;;;;;5.93;5.43;;;21.90;53.80;;;;;;5013960;28;20425;-69
2022/05/03 11:03:37;;;;;;;5.53;5.03;;;22.00;53.90;;;;;;5014120;28;20438;-70
2022/05/03 11:06:18;;;;;;;6.83;6.10;;;22.00;52.20;;;;;;5013957;28;20432;-68
2022/05/03 11:09:08;;;;;;;6.33;5.90;;;22.10;52.40;;;;;;5013867;28;20464;-68
2022/05/03 11:11:42;;;;;;;6.53;6.07;;;22.10;53.60;;;;;;5013410;28;20834;-68
2022/05/03 11:14:17;;;;;;;6.70;6.03;;;22.20;52.40;;;;;;5013040;28;20537;-70
2022/05/03 11:17:18;;;;;;;6.83;6.23;;;22.30;54.80;;;;;;5013570;28;20426;-69
2022/05/03 11:19:46;;;;;;;7.33;6.83;;;22.40;52.40;;;;;;4980291;28;20628;-69
2022/05/03 11:22:14;;;;;;;7.03;6.43;;;22.30;52.50;;;;;;5013009;28;20414;-69
2022/05/03 11:24:44;;;;;;;6.20;5.90;;;22.30;51.90;;;;;;5013200;28;20913;-69
2022/05/03 11:27:12;;;;;;;7.13;6.63;;;22.30;51.30;;;;;;5013086;28;20449;-69
2022/05/03 11:29:41;;;;;;;7.90;7.30;;;22.40;52.70;;;;;;5013434;28;20925;-69
2022/05/03 11:32:08;;;;;;;6.23;5.63;;;22.50;51.90;;;;;;5011539;28;20762;-75
2022/05/03 11:34:35;;;;;;;7.60;6.87;;;22.50;54.10;;;;;;5013439;28;20419;-69
2022/05/03 11:37:03;;;;;;;6.50;6.00;;;22.50;53.00;;;;;;5013356;28;20774;-69
2022/05/03 11:39:28;;;;;;;7.13;6.63;;;22.60;57.40;;;;;;5012335;28;20552;-69
2022/05/03 11:41:54;;;;;;;9.07;8.37;;;22.70;54.00;;;;;;5013467;28;20509;-69
2022/05/03 11:44:20;;;;;;;7.07;6.57;;;22.90;54.20;;;;;;5012301;28;20171;-69
2022/05/03 11:46:48;;;;;;;7.17;6.60;;;23.00;54.10;;;;;;5013224;28;20564;-69
2022/05/03 11:49:15;;;;;;;6.60;6.00;;;23.10;52.30;;;;;;5012580;28;20223;-69
2022/05/03 11:57:23;;;;;;;7.70;7.30;;;23.00;51.60;;;;;;5011256;28;20422;-69
2022/05/03 11:59:51;;;;;;;7.07;6.67;;;23.00;51.90;;;;;;5012920;28;20465;-69
2022/05/03 12:02:21;;;;;;;7.83;7.33;;;23.10;53.20;;;;;;5011248;28;20418;-69
2022/05/03 12:05:06;;;;;;;7.60;7.10;;;23.20;53.60;;;;;;5012641;28;20413;-69
2022/05/03 12:07:35;;;;;;;5.90;5.50;;;23.30;52.30;;;;;;5011533;28;20776;-69
2022/05/03 12:10:01;;;;;;;6.23;5.63;;;23.20;53.10;;;;;;5012165;28;20498;-69
2022/05/03 12:15:28;;;;;;;7.40;6.70;;;23.30;52.00;;;;;;5003049;28;20430;-69
2022/05/03 12:18:42;;;;;;;7.43;6.90;;;23.40;53.30;;;;;;5012852;28;20779;-69
2022/05/03 12:21:19;;;;;;;8.30;7.70;;;23.50;53.50;;;;;;4999896;28;20933;-69
2022/05/03 12:23:47;;;;;;;7.77;7.17;;;23.40;50.00;;;;;;5012946;28;20496;-69
2022/05/03 12:26:33;;;;;;;7.80;7.10;;;23.30;51.30;;;;;;5010868;28;20771;-70
2022/05/03 12:29:00;;;;;;;7.50;6.90;;;23.30;51.40;;;;;;5012243;28;20395;-69
2022/05/03 12:31:35;;;;;;;8.70;8.00;;;23.30;50.90;;;;;;5011543;28;20427;-69
2022/05/03 12:34:02;;;;;;;8.07;7.50;;;23.20;52.60;;;;;;5012666;28;20460;-69
2022/05/03 12:36:44;;;;;;;8.73;8.03;;;23.20;51.00;;;;;;5011760;28;20469;-69
2022/05/03 12:39:11;;;;;;;10.07;9.37;;;23.20;50.70;;;;;;5012556;28;20871;-69
2022/05/03 12:41:37;;;;;;;8.50;7.90;;;23.20;50.50;;;;;;5012672;28;20422;-69
2022/05/03 12:44:14;;;;;;;7.70;7.10;;;23.00;50.60;;;;;;5012531;28;20425;-69
2022/05/03 12:46:41;;;;;;;6.93;6.43;;;23.00;52.80;;;;;;5012526;28;20512;-69
2022/05/03 12:49:11;;;;;;;8.70;7.80;;;22.90;52.90;;;;;;5011118;28;20461;-69
2022/05/03 12:51:41;;;;;;;8.50;7.90;;;23.00;51.30;;;;;;5013060;28;20446;-69
2022/05/03 12:54:07;;;;;;;8.07;7.47;;;23.00;50.30;;;;;;5012703;28;20430;-69
2022/05/03 12:59:21;;;;;;;9.10;7.30;;;23.10;52.60;;;;;;5011720;28;20520;-69
2022/05/03 13:01:47;;;;;;;7.40;6.90;;;23.10;52.20;;;;;;5012876;28;20452;-69
2022/05/03 13:04:14;;;;;;;9.90;9.03;;;23.10;53.30;;;;;;5011821;28;20421;-70
2022/05/03 13:06:41;;;;;;;8.33;7.73;;;23.20;52.50;;;;;;5012441;28;20414;-69
2022/05/03 13:09:08;;;;;;;8.20;7.50;;;23.10;51.60;;;;;;5012537;28;20476;-69
2022/05/03 13:11:34;;;;;;;7.50;6.70;;;23.20;51.40;;;;;;5011740;28;20434;-69
2022/05/03 13:14:00;;;;;;;7.80;7.00;;;23.20;53.50;;;;;;5012556;28;20418;-69
2022/05/03 13:16:27;;;;;;;7.60;7.00;;;23.20;52.00;;;;;;5015186;28;20414;-69
2022/05/03 13:18:52;;;;;;;8.80;8.20;;;23.20;50.50;;;;;;5015762;28;20465;-69
2022/05/03 13:21:18;;;;;;;8.33;7.53;;;23.10;51.60;;;;;;5015472;28;20402;-71
2022/05/03 13:23:44;;;;;;;8.63;7.83;;;23.10;50.00;;;;;;5015844;28;20186;-69
2022/05/03 13:26:10;;;;;;;8.10;7.50;;;22.90;48.30;;;;;;5015730;28;20410;-69
2022/05/03 13:28:36;;;;;;;7.43;6.53;;;22.90;51.40;;;;;;5015077;28;20221;-68
2022/05/03 13:31:02;;;;;;;7.60;7.10;;;22.90;52.20;;;;;;5015389;28;20171;-69
2022/05/03 13:33:28;;;;;;;8.50;7.80;;;22.90;53.20;;;;;;5015011;28;20414;-68
2022/05/03 13:41:22;;;;;;;6.87;6.27;;;22.70;49.30;;;;;;5014898;28;20398;-69
2022/05/03 13:43:48;;;;;;;7.93;7.13;;;22.70;52.30;;;;;;5015420;28;20965;-68
2022/05/03 13:46:15;;;;;;;8.37;7.67;;;22.70;51.60;;;;;;5015247;28;20167;-69
2022/05/03 13:48:41;;;;;;;8.73;7.93;;;22.60;50.60;;;;;;5014936;28;20972;-69